createdAt,value
2018-07-15T00:04:40.107Z,16.40
2018-07-15T00:09:42.747Z,16.30
2018-07-15T00:14:45.409Z,16.20
2018-07-15T00:19:48.055Z,16.20
2018-07-15T00:24:50.706Z,16.20
2018-07-15T00:34:55.860Z,16.30
2018-07-15T00:39:58.491Z,16.20
2018-07-15T00:45:01.173Z,16.10
2018-07-15T00:50:03.825Z,16.10
2018-07-15T00:55:06.474Z,16.10
2018-07-15T01:00:09.154Z,16.20
2018-07-15T01:05:11.830Z,16.10
2018-07-15T01:10:14.458Z,16.20
2018-07-15T01:15:17.130Z,16.20
2018-07-15T01:20:19.834Z,16.20
2018-07-15T01:25:22.455Z,16.10
2018-07-15T01:30:25.122Z,16.10
2018-07-15T01:40:30.348Z,16.10
2018-07-15T01:45:32.982Z,16.10
2018-07-15T01:50:35.616Z,16.10
2018-07-15T01:55:38.311Z,16.20
2018-07-15T02:00:40.938Z,16.20
2018-07-15T02:05:43.604Z,16.20
2018-07-15T02:10:46.236Z,16.20
2018-07-15T02:15:49.087Z,16.20
2018-07-15T02:20:51.720Z,16.30
2018-07-15T02:25:54.338Z,16.30
2018-07-15T02:30:56.946Z,16.40
2018-07-15T02:35:59.550Z,16.30
2018-07-15T02:41:02.452Z,16.10
2018-07-15T02:46:05.111Z,16.20
2018-07-15T02:51:07.782Z,16.40
2018-07-15T03:01:12.972Z,14.80
2018-07-15T03:06:15.620Z,16.00
2018-07-15T03:11:18.231Z,15.90
2018-07-15T03:16:20.853Z,15.60
2018-07-15T03:21:23.478Z,15.50
2018-07-15T03:26:26.104Z,15.30
2018-07-15T03:31:28.736Z,15.10
2018-07-15T03:36:31.362Z,14.90
2018-07-15T03:41:34.006Z,14.80
2018-07-15T03:46:36.731Z,14.70
2018-07-15T03:51:39.364Z,14.80
2018-07-15T03:56:42.087Z,14.80
2018-07-15T04:01:45.389Z,14.90
2018-07-15T04:06:48.070Z,14.90
2018-07-15T04:11:50.770Z,14.80
2018-07-15T04:16:53.391Z,14.80
2018-07-15T04:21:56.009Z,14.80
2018-07-15T04:26:58.565Z,14.90
2018-07-15T04:32:01.309Z,15.00
2018-07-15T04:37:04.354Z,15.10
2018-07-15T04:42:07.011Z,15.30
2018-07-15T04:52:12.144Z,15.50
2018-07-15T04:57:14.751Z,15.60
2018-07-15T05:02:17.358Z,15.80
2018-07-15T05:07:20.015Z,16.00
2018-07-15T05:12:22.658Z,16.20
2018-07-15T05:17:25.239Z,16.40
2018-07-15T05:22:27.859Z,16.70
2018-07-15T05:27:30.475Z,16.90
2018-07-15T05:32:33.130Z,17.20
2018-07-15T05:37:35.827Z,17.40
2018-07-15T05:42:38.491Z,17.60
2018-07-15T05:47:41.063Z,17.80
2018-07-15T05:52:43.658Z,18.10
2018-07-15T05:57:46.367Z,18.40
2018-07-15T06:02:48.978Z,18.70
2018-07-15T06:07:51.674Z,19.10
2018-07-15T06:12:54.389Z,19.30
2018-07-15T06:17:56.987Z,19.60
2018-07-15T06:22:59.590Z,19.90
2018-07-15T06:28:02.228Z,20.40
2018-07-15T06:33:04.958Z,20.70
2018-07-15T06:38:08.142Z,21.10
2018-07-15T06:43:10.803Z,21.50
2018-07-15T06:48:13.434Z,22.10
2018-07-15T06:53:16.474Z,22.50
2018-07-15T06:58:19.127Z,23.00
2018-07-15T07:03:21.742Z,23.50
2018-07-15T07:08:24.367Z,24.10
2018-07-15T07:13:26.979Z,24.50
2018-07-15T07:18:29.599Z,24.80
2018-07-15T07:23:32.203Z,25.00
2018-07-15T07:33:38.287Z,25.30
2018-07-15T07:38:40.949Z,25.50
2018-07-15T07:43:43.540Z,25.60
2018-07-15T07:48:46.163Z,25.60
2018-07-15T07:53:48.779Z,25.70
2018-07-15T07:58:51.383Z,25.60
2018-07-15T08:03:53.988Z,25.60
2018-07-15T08:08:56.655Z,25.90
2018-07-15T08:19:01.913Z,25.60
2018-07-15T08:24:04.826Z,25.80
2018-07-15T08:29:07.487Z,26.20
2018-07-15T08:34:10.125Z,26.80
2018-07-15T08:39:12.779Z,27.20
2018-07-15T08:44:15.475Z,27.60
2018-07-15T08:49:18.146Z,27.40
2018-07-15T08:54:20.848Z,27.60
2018-07-15T08:59:23.499Z,27.50
2018-07-15T09:04:26.133Z,27.70
2018-07-15T09:09:28.740Z,28.60
2018-07-15T09:14:31.384Z,29.10
2018-07-15T09:19:34.380Z,28.90
2018-07-15T09:24:37.125Z,28.70
2018-07-15T09:29:40.038Z,29.30
2018-07-15T09:34:42.653Z,28.50
2018-07-15T09:39:48.129Z,29.20
2018-07-15T09:44:50.916Z,29.10
2018-07-15T09:49:53.610Z,28.90
2018-07-15T09:54:56.247Z,30.10
2018-07-15T09:59:58.857Z,30.80
2018-07-15T10:05:01.520Z,31.40
2018-07-15T10:10:04.382Z,31.60
2018-07-15T10:15:07.095Z,31.40
2018-07-15T10:20:10.468Z,31.60
2018-07-15T10:25:13.899Z,30.90
2018-07-15T10:30:16.466Z,30.90
2018-07-15T10:41:22.541Z,32.30
2018-07-15T10:47:02.796Z,32.60
2018-07-15T10:52:43.009Z,33.30
2018-07-15T10:57:53.321Z,34.10
2018-07-15T11:02:56.014Z,35.20
2018-07-15T11:07:58.686Z,35.70
2018-07-15T11:13:01.321Z,35.10
2018-07-15T11:18:04.273Z,35.10
2018-07-15T11:23:06.911Z,34.00
2018-07-15T11:28:09.549Z,32.60
2018-07-15T11:33:12.190Z,31.10
2018-07-15T11:38:15.271Z,29.60
2018-07-15T11:43:17.930Z,28.70
2018-07-15T11:48:20.627Z,28.20
2018-07-15T11:53:23.266Z,27.70
2018-07-15T11:58:25.954Z,27.10
2018-07-15T12:03:28.567Z,26.00
2018-07-15T12:08:31.176Z,26.00
2018-07-15T12:13:33.795Z,22.50
2018-07-15T12:18:36.499Z,21.00
2018-07-15T12:23:39.059Z,21.00
2018-07-15T12:28:41.667Z,20.50
2018-07-15T12:33:44.740Z,19.80
2018-07-15T12:38:47.413Z,18.70
2018-07-15T12:43:49.989Z,17.80
2018-07-15T12:48:52.627Z,17.20
2018-07-15T12:53:55.433Z,16.60
2018-07-15T12:58:58.598Z,16.50
2018-07-15T13:04:01.534Z,16.50
2018-07-15T13:09:05.082Z,16.60
2018-07-15T13:14:07.711Z,16.80
2018-07-15T13:19:10.444Z,16.90
2018-07-15T13:24:13.070Z,17.00
2018-07-15T13:29:15.732Z,17.10
2018-07-15T13:34:18.410Z,17.40
2018-07-15T13:39:21.248Z,18.00
2018-07-15T13:44:23.949Z,19.40
2018-07-15T13:49:26.694Z,20.60
2018-07-15T13:59:31.994Z,20.50
2018-07-15T14:04:34.703Z,20.20
2018-07-15T14:09:37.313Z,20.30
2018-07-15T14:14:39.888Z,20.30
2018-07-15T14:19:42.573Z,20.70
2018-07-15T14:24:45.241Z,21.40
2018-07-15T14:29:48.106Z,22.10
2018-07-15T14:34:50.822Z,23.10
2018-07-15T14:39:53.533Z,23.60
2018-07-15T14:44:56.103Z,25.00
2018-07-15T14:49:58.788Z,27.50
2018-07-15T14:55:01.377Z,30.80
2018-07-15T15:00:04.120Z,32.60
2018-07-15T15:05:07.508Z,31.60
2018-07-15T15:10:10.141Z,31.40
2018-07-15T15:15:12.740Z,30.30
2018-07-15T15:20:15.353Z,29.60
2018-07-15T15:25:18.087Z,27.70
2018-07-15T15:30:20.979Z,27.40
2018-07-15T15:35:23.622Z,27.80
2018-07-15T15:40:26.204Z,28.60
2018-07-15T15:45:28.784Z,28.90
2018-07-15T15:50:31.359Z,27.00
2018-07-15T15:55:33.958Z,26.60
2018-07-15T16:00:36.523Z,26.40
2018-07-15T16:05:40.534Z,26.30
2018-07-15T16:10:43.342Z,27.40
2018-07-15T16:15:45.955Z,28.80
2018-07-15T16:20:48.566Z,28.40
2018-07-15T16:25:51.350Z,30.00
2018-07-15T16:30:53.980Z,30.80
2018-07-15T16:35:56.580Z,32.40
2018-07-15T16:40:59.294Z,31.80
2018-07-15T16:46:01.919Z,29.50
2018-07-15T16:51:04.630Z,27.40
2018-07-15T16:56:07.300Z,26.20
2018-07-15T17:01:09.907Z,25.40
2018-07-15T17:06:12.563Z,25.30
2018-07-15T17:11:15.223Z,27.50
2018-07-15T17:16:17.848Z,30.70
2018-07-15T17:21:20.463Z,31.70
2018-07-15T17:31:25.695Z,27.90
2018-07-15T17:36:28.319Z,27.50
2018-07-15T17:41:30.947Z,26.50
2018-07-15T17:46:33.541Z,25.50
2018-07-15T17:51:36.154Z,24.30
2018-07-15T17:56:38.802Z,23.50
2018-07-15T18:01:41.370Z,22.80
2018-07-15T18:06:44.830Z,22.30
2018-07-15T18:16:49.944Z,21.80
2018-07-15T18:21:52.525Z,21.70
2018-07-15T18:26:55.206Z,21.50
2018-07-15T18:31:57.847Z,21.10
2018-07-15T18:37:00.832Z,20.70
2018-07-15T18:42:03.479Z,20.30
2018-07-15T18:47:06.063Z,20.00
2018-07-15T18:52:08.687Z,19.70
2018-07-15T18:57:11.396Z,19.50
2018-07-15T19:02:14.024Z,19.20
2018-07-15T19:07:16.703Z,19.00
2018-07-15T19:17:21.856Z,18.40
2018-07-15T19:22:24.618Z,18.30
2018-07-15T19:27:27.228Z,18.20
2018-07-15T19:32:29.819Z,18.10
2018-07-15T19:37:32.566Z,18.00
2018-07-15T19:42:35.187Z,18.00
2018-07-15T19:47:37.797Z,17.80
2018-07-15T19:52:40.501Z,17.60
2018-07-15T19:57:43.247Z,17.50
2018-07-15T20:02:45.867Z,17.40
2018-07-15T20:07:48.560Z,17.30
2018-07-15T20:12:51.235Z,17.20
2018-07-15T20:17:53.878Z,17.20
2018-07-15T20:22:56.571Z,17.20
2018-07-15T20:27:59.169Z,17.20
2018-07-15T20:33:01.824Z,17.00
2018-07-15T20:38:04.472Z,16.90
2018-07-15T20:43:07.120Z,16.80
2018-07-15T20:48:09.671Z,16.80
2018-07-15T20:53:12.243Z,16.80
2018-07-15T20:58:14.830Z,17.00
2018-07-15T21:03:17.459Z,17.00
2018-07-15T21:08:20.020Z,16.80
2018-07-15T21:13:22.664Z,16.80
2018-07-15T21:18:25.227Z,16.70
2018-07-15T21:23:27.796Z,16.80
2018-07-15T21:28:30.535Z,16.80
2018-07-15T21:33:33.128Z,16.80
